createdAt,value
2018-06-18T00:00:34.118Z,2.17
2018-06-18T00:03:02.361Z,2.00
2018-06-18T00:05:30.660Z,2.00
2018-06-18T00:07:58.955Z,2.43
2018-06-18T00:10:27.225Z,2.10
2018-06-18T00:12:55.495Z,2.20
2018-06-18T00:15:23.791Z,2.30
2018-06-18T00:17:52.060Z,2.50
2018-06-18T00:20:20.358Z,2.17
2018-06-18T00:22:48.622Z,1.97
2018-06-18T00:25:16.836Z,2.47
2018-06-18T00:27:45.152Z,2.33
2018-06-18T00:30:13.376Z,2.07
2018-06-18T00:32:41.672Z,2.20
2018-06-18T00:35:09.979Z,2.43
2018-06-18T00:37:38.294Z,2.20
2018-06-18T00:40:06.515Z,2.23
2018-06-18T00:42:34.818Z,2.37
2018-06-18T00:45:03.100Z,2.40
2018-06-18T00:47:31.408Z,2.50
2018-06-18T00:49:59.700Z,2.10
2018-06-18T00:52:27.950Z,2.23
2018-06-18T00:54:56.212Z,3.03
2018-06-18T00:57:24.468Z,2.70
2018-06-18T00:59:52.750Z,3.10
2018-06-18T01:02:21.011Z,2.83
2018-06-18T01:04:49.272Z,2.60
2018-06-18T01:07:17.516Z,2.87
2018-06-18T01:09:45.810Z,2.93
2018-06-18T01:12:14.088Z,2.23
2018-06-18T01:14:42.443Z,2.30
2018-06-18T01:17:10.692Z,2.80
2018-06-18T01:19:38.916Z,2.80
2018-06-18T01:22:07.200Z,2.70
2018-06-18T01:24:56.333Z,2.50
2018-06-18T01:27:24.606Z,2.50
2018-06-18T01:29:52.903Z,2.40
2018-06-18T01:32:21.164Z,2.87
2018-06-18T01:34:49.414Z,2.50
2018-06-18T01:37:17.660Z,2.77
2018-06-18T01:39:45.911Z,2.77
2018-06-18T01:42:14.171Z,2.60
2018-06-18T01:44:42.486Z,3.10
2018-06-18T01:47:10.749Z,2.57
2018-06-18T01:49:38.751Z,2.50
2018-06-18T01:52:06.991Z,2.57
2018-06-18T01:54:35.279Z,2.43
2018-06-18T01:57:03.271Z,2.07
2018-06-18T01:59:31.557Z,2.20
2018-06-18T02:02:00.551Z,2.23
2018-06-18T02:04:28.804Z,2.80
2018-06-18T02:06:57.066Z,2.57
2018-06-18T02:09:25.053Z,2.40
2018-06-18T02:11:53.337Z,2.83
2018-06-18T02:14:21.581Z,2.67
2018-06-18T02:16:49.572Z,2.20
2018-06-18T02:19:17.887Z,2.67
2018-06-18T02:21:46.240Z,2.67
2018-06-18T02:24:14.516Z,2.40
2018-06-18T02:26:42.782Z,2.30
2018-06-18T02:29:16.302Z,2.33
2018-06-18T02:31:49.992Z,2.80
2018-06-18T02:34:23.635Z,2.33
2018-06-18T02:36:57.348Z,2.37
2018-06-18T02:39:25.614Z,2.53
2018-06-18T02:41:53.917Z,2.50
2018-06-18T02:44:22.158Z,2.30
2018-06-18T02:46:50.478Z,2.77
2018-06-18T02:49:18.735Z,3.13
2018-06-18T02:51:46.977Z,2.23
2018-06-18T02:54:15.207Z,2.43
2018-06-18T02:56:55.051Z,2.57
2018-06-18T02:59:23.337Z,2.50
2018-06-18T03:01:51.599Z,2.93
2018-06-18T03:04:19.850Z,2.70
2018-06-18T03:06:48.075Z,2.80
2018-06-18T03:09:16.367Z,2.70
2018-06-18T03:11:44.630Z,2.97
2018-06-18T03:14:12.909Z,2.47
2018-06-18T03:16:41.167Z,2.80
2018-06-18T03:19:14.906Z,2.70
2018-06-18T03:21:48.678Z,2.80
2018-06-18T03:24:22.251Z,2.70
2018-06-18T03:26:55.874Z,2.40
2018-06-18T03:29:26.527Z,3.17
2018-06-18T03:31:56.540Z,2.90
2018-06-18T03:34:24.802Z,2.97
2018-06-18T03:36:53.389Z,2.77
2018-06-18T03:39:21.687Z,2.93
2018-06-18T03:41:51.087Z,4.57
2018-06-18T03:44:30.781Z,3.77
2018-06-18T03:47:03.308Z,3.47
2018-06-18T03:49:31.562Z,2.90
2018-06-18T03:51:59.813Z,3.13
2018-06-18T03:54:27.863Z,3.03
2018-06-18T03:56:56.540Z,2.60
2018-06-18T03:59:24.810Z,3.20
2018-06-18T04:02:06.308Z,2.63
2018-06-18T04:04:51.868Z,3.10
2018-06-18T04:07:26.571Z,4.07
2018-06-18T04:10:00.579Z,2.90
2018-06-18T04:12:28.951Z,3.20
2018-06-18T04:14:57.302Z,3.00
2018-06-18T04:17:25.334Z,3.30
2018-06-18T04:19:53.603Z,2.97
2018-06-18T04:22:22.743Z,3.00
2018-06-18T04:24:51.105Z,2.63
2018-06-18T04:27:19.375Z,5.50
2018-06-18T04:29:47.590Z,2.97
2018-06-18T04:32:15.870Z,2.80
2018-06-18T04:34:47.268Z,2.90
2018-06-18T04:37:15.560Z,2.90
2018-06-18T04:39:43.890Z,3.50
2018-06-18T04:42:17.656Z,3.00
2018-06-18T04:45:53.156Z,3.10
2018-06-18T04:48:26.808Z,2.97
2018-06-18T04:50:59.164Z,2.57
2018-06-18T04:53:27.427Z,3.40
2018-06-18T04:55:55.656Z,2.97
2018-06-18T04:58:23.928Z,2.73
2018-06-18T05:01:26.975Z,3.03
2018-06-18T05:03:55.394Z,3.17
2018-06-18T05:06:24.698Z,3.33
2018-06-18T05:09:00.512Z,3.30
2018-06-18T05:11:28.915Z,2.77
2018-06-18T05:13:57.212Z,3.27
2018-06-18T05:16:25.490Z,2.97
2018-06-18T05:18:53.789Z,2.90
2018-06-18T05:21:22.006Z,3.00
2018-06-18T05:23:50.954Z,3.00
2018-06-18T05:26:19.510Z,2.90
2018-06-18T05:28:47.824Z,2.87
2018-06-18T05:31:16.035Z,2.80
2018-06-18T05:33:44.286Z,2.60
2018-06-18T05:36:12.555Z,2.57
2018-06-18T05:38:40.832Z,3.03
2018-06-18T05:41:09.111Z,3.20
2018-06-18T05:43:37.382Z,3.10
2018-06-18T05:46:05.675Z,2.60
2018-06-18T05:48:34.030Z,2.73
2018-06-18T05:51:02.356Z,2.67
2018-06-18T05:53:30.388Z,2.70
2018-06-18T05:55:58.779Z,3.27
2018-06-18T05:58:27.078Z,3.00
2018-06-18T06:00:55.415Z,2.70
2018-06-18T06:03:23.685Z,3.20
2018-06-18T06:05:52.018Z,3.20
2018-06-18T06:08:20.268Z,2.90
2018-06-18T06:10:48.523Z,2.80
2018-06-18T06:13:16.748Z,2.90
2018-06-18T06:15:45.094Z,2.57
2018-06-18T06:18:13.358Z,2.47
2018-06-18T06:20:59.129Z,2.40
2018-06-18T06:23:27.076Z,2.50
2018-06-18T06:25:55.339Z,3.23
2018-06-18T06:28:24.216Z,2.80
2018-06-18T06:30:52.590Z,2.90
2018-06-18T06:33:21.238Z,2.40
2018-06-18T06:35:49.713Z,2.53
2018-06-18T06:38:17.987Z,3.33
2018-06-18T06:40:47.047Z,2.43
2018-06-18T06:43:15.042Z,2.90
2018-06-18T06:45:43.346Z,2.70
2018-06-18T06:48:11.603Z,2.50
2018-06-18T06:50:39.960Z,3.33
2018-06-18T06:53:08.252Z,2.83
2018-06-18T06:55:36.514Z,2.30
2018-06-18T06:58:04.940Z,2.83
2018-06-18T07:00:33.194Z,2.67
2018-06-18T07:03:01.459Z,2.50
2018-06-18T07:05:29.750Z,2.10
2018-06-18T07:07:58.103Z,2.67
2018-06-18T07:10:26.602Z,3.02
2018-06-18T07:12:54.827Z,2.57
2018-06-18T07:15:22.840Z,2.67
2018-06-18T07:17:51.425Z,1.97
2018-06-18T07:20:19.708Z,5.43
2018-06-18T07:22:47.994Z,2.33
2018-06-18T07:25:16.262Z,2.77
2018-06-18T07:27:44.504Z,2.73
2018-06-18T07:30:12.838Z,2.20
2018-06-18T07:32:41.078Z,2.13
2018-06-18T07:35:09.366Z,2.30
2018-06-18T07:37:37.978Z,2.50
2018-06-18T07:40:06.239Z,2.47
2018-06-18T07:42:34.519Z,2.20
2018-06-18T07:45:02.788Z,1.90
2018-06-18T07:47:31.065Z,3.40
2018-06-18T07:49:59.352Z,2.03
2018-06-18T07:52:27.654Z,3.27
2018-06-18T07:54:55.692Z,2.43
2018-06-18T07:57:24.036Z,2.53
2018-06-18T07:59:52.468Z,2.40
2018-06-18T08:02:20.774Z,2.37
2018-06-18T08:04:49.156Z,2.53
2018-06-18T08:07:17.520Z,2.80
2018-06-18T08:09:45.868Z,2.50
2018-06-18T08:12:14.116Z,2.45
2018-06-18T08:14:42.430Z,2.80
2018-06-18T08:17:11.121Z,2.60
2018-06-18T08:19:39.548Z,2.77
2018-06-18T08:22:07.818Z,2.47
2018-06-18T08:24:36.155Z,2.33
2018-06-18T08:27:05.184Z,2.77
2018-06-18T08:29:33.438Z,2.70
2018-06-18T08:32:01.699Z,5.17
2018-06-18T08:34:29.966Z,6.80
2018-06-18T08:36:58.263Z,2.58
2018-06-18T08:39:26.553Z,2.27
2018-06-18T08:41:55.800Z,2.20
2018-06-18T08:44:24.095Z,2.20
2018-06-18T08:46:52.430Z,2.08
2018-06-18T08:49:20.738Z,1.90
2018-06-18T08:51:54.406Z,1.70
2018-06-18T08:54:28.003Z,2.08
2018-06-18T08:57:01.742Z,3.80
2018-06-18T08:59:35.508Z,2.15
2018-06-18T09:02:03.803Z,1.82
2018-06-18T09:04:37.485Z,2.10
2018-06-18T09:07:11.114Z,2.20
2018-06-18T09:09:39.383Z,1.77
2018-06-18T09:12:07.678Z,2.10
2018-06-18T09:14:36.103Z,2.15
2018-06-18T09:17:04.605Z,2.12
2018-06-18T09:19:32.831Z,2.00
2018-06-18T09:22:01.142Z,2.25
2018-06-18T09:24:33.726Z,1.82
2018-06-18T09:27:07.424Z,2.00
2018-06-18T09:29:36.290Z,2.12
2018-06-18T09:32:08.919Z,2.00
2018-06-18T09:34:37.080Z,2.17
2018-06-18T09:37:05.646Z,1.92
2018-06-18T09:39:33.911Z,7.72
2018-06-18T09:42:02.200Z,2.25
2018-06-18T09:44:30.508Z,1.85
2018-06-18T09:46:59.288Z,1.85
2018-06-18T09:49:33.130Z,2.10
2018-06-18T09:52:06.820Z,1.60
2018-06-18T09:54:40.620Z,2.02
2018-06-18T09:57:26.879Z,3.33
2018-06-18T10:00:05.097Z,7.87
2018-06-18T10:02:33.347Z,2.00
2018-06-18T10:05:01.604Z,1.60
2018-06-18T10:07:29.913Z,2.15
2018-06-18T10:09:58.147Z,2.47
2018-06-18T10:12:26.439Z,1.90
2018-06-18T10:14:54.536Z,2.30
2018-06-18T10:17:22.821Z,1.90
2018-06-18T10:19:51.899Z,1.90
2018-06-18T10:22:20.146Z,1.80
2018-06-18T10:24:48.488Z,1.80
2018-06-18T10:27:16.744Z,2.20
2018-06-18T10:29:45.028Z,1.70
2018-06-18T10:32:18.588Z,1.90
2018-06-18T10:34:52.154Z,1.87
2018-06-18T10:37:25.806Z,2.12
2018-06-18T10:39:59.226Z,2.10
2018-06-18T10:42:32.863Z,2.27
2018-06-18T10:45:01.196Z,1.80
2018-06-18T10:47:29.432Z,2.12
2018-06-18T10:49:57.715Z,3.60
2018-06-18T10:52:25.737Z,2.00
2018-06-18T10:54:54.012Z,1.80
2018-06-18T10:57:22.301Z,1.72
2018-06-18T10:59:50.572Z,1.90
2018-06-18T11:02:18.828Z,1.60
2018-06-18T11:04:52.258Z,1.80
2018-06-18T11:07:20.594Z,1.70
2018-06-18T11:09:48.878Z,1.98
2018-06-18T11:12:17.173Z,1.82
2018-06-18T11:14:45.656Z,1.90
2018-06-18T11:17:19.441Z,1.45
2018-06-18T11:19:53.039Z,1.60
2018-06-18T11:22:25.573Z,1.90
2018-06-18T11:25:57.869Z,1.62
2018-06-18T11:28:26.200Z,1.70
2018-06-18T11:30:54.381Z,1.37
2018-06-18T11:33:22.660Z,1.70
2018-06-18T11:35:50.998Z,1.80
2018-06-18T11:38:19.231Z,1.70
2018-06-18T11:40:47.257Z,1.80
2018-06-18T11:43:15.504Z,1.70
2018-06-18T11:45:43.804Z,1.70
2018-06-18T11:48:15.838Z,1.82
2018-06-18T11:50:44.099Z,2.22
2018-06-18T11:53:12.169Z,2.05
2018-06-18T11:55:40.188Z,1.50
2018-06-18T11:58:08.448Z,1.70
2018-06-18T12:00:42.131Z,1.87
2018-06-18T12:03:15.689Z,1.70
2018-06-18T12:05:49.409Z,1.90
2018-06-18T12:08:23.143Z,1.90
2018-06-18T12:10:51.887Z,1.47
2018-06-18T12:13:20.203Z,1.60
2018-06-18T12:15:49.336Z,1.72
2018-06-18T12:18:17.629Z,2.45
2018-06-18T12:20:45.917Z,1.67
2018-06-18T12:23:14.193Z,1.55
2018-06-18T12:25:42.423Z,1.90
2018-06-18T12:28:10.719Z,1.67
2018-06-18T12:30:39.066Z,1.62
2018-06-18T12:33:07.325Z,1.57
2018-06-18T12:35:35.968Z,1.62
2018-06-18T12:38:04.279Z,1.62
2018-06-18T12:40:32.367Z,1.80
2018-06-18T12:43:00.716Z,1.67
2018-06-18T12:45:35.382Z,1.98
2018-06-18T12:48:09.074Z,1.60
2018-06-18T12:50:43.051Z,1.25
2018-06-18T12:53:16.773Z,1.50
2018-06-18T12:55:50.512Z,1.57
2018-06-18T12:58:18.852Z,1.30
2018-06-18T13:00:47.519Z,1.60
2018-06-18T13:03:16.920Z,1.15
2018-06-18T13:05:45.515Z,1.40
2018-06-18T13:08:13.908Z,1.82
2018-06-18T13:10:42.223Z,1.72
2018-06-18T13:13:10.650Z,1.57
2018-06-18T13:15:38.985Z,1.77
2018-06-18T13:18:07.361Z,1.20
2018-06-18T13:20:35.894Z,1.20
2018-06-18T13:23:04.099Z,1.50
2018-06-18T13:25:32.458Z,1.10
2018-06-18T13:28:06.105Z,1.30
2018-06-18T13:30:34.435Z,1.10
2018-06-18T13:33:02.795Z,1.30
2018-06-18T13:35:31.089Z,1.37
2018-06-18T13:38:04.513Z,1.40
2018-06-18T13:40:38.077Z,1.40
2018-06-18T13:43:11.924Z,1.40
2018-06-18T13:45:42.678Z,1.40
2018-06-18T13:48:25.800Z,1.42
2018-06-18T13:50:54.158Z,1.42
2018-06-18T13:53:22.480Z,1.12
2018-06-18T13:55:50.808Z,1.42
2018-06-18T13:58:19.129Z,1.50
2018-06-18T14:00:47.479Z,1.60
2018-06-18T14:03:15.800Z,1.40
2018-06-18T14:05:44.089Z,1.70
2018-06-18T14:08:12.381Z,1.98
2018-06-18T14:10:40.675Z,1.40
2018-06-18T14:13:09.063Z,1.90
2018-06-18T14:15:37.339Z,1.70
2018-06-18T14:18:05.622Z,1.80
2018-06-18T14:20:33.930Z,1.60
2018-06-18T14:23:02.174Z,1.40
2018-06-18T14:25:30.529Z,1.95
2018-06-18T14:27:58.881Z,2.00
2018-06-18T14:30:32.711Z,1.62
2018-06-18T14:34:09.191Z,1.80
2018-06-18T14:36:42.802Z,2.12
2018-06-18T14:39:16.519Z,2.10
2018-06-18T14:41:44.874Z,2.98
2018-06-18T14:44:13.261Z,2.25
2018-06-18T14:46:41.511Z,2.37
2018-06-18T14:49:09.810Z,6.20
2018-06-18T14:51:38.060Z,2.90
2018-06-18T14:54:06.494Z,2.15
2018-06-18T14:56:35.603Z,1.80
2018-06-18T14:59:23.950Z,1.80
2018-06-18T15:01:52.227Z,1.92
2018-06-18T15:04:20.471Z,2.27
2018-06-18T15:06:48.798Z,2.10
2018-06-18T15:09:17.187Z,2.40
2018-06-18T15:11:45.622Z,2.47
2018-06-18T15:14:13.911Z,2.10
2018-06-18T15:16:42.235Z,1.95
2018-06-18T15:19:10.520Z,2.47
2018-06-18T15:21:42.875Z,2.12
2018-06-18T15:24:22.878Z,2.10
2018-06-18T15:26:51.311Z,1.92
2018-06-18T15:29:20.095Z,1.77
2018-06-18T15:31:48.465Z,2.30
2018-06-18T15:34:16.894Z,2.10
2018-06-18T15:36:45.380Z,2.20
2018-06-18T15:39:13.817Z,2.40
2018-06-18T15:41:42.185Z,2.02
2018-06-18T15:44:10.464Z,1.90
2018-06-18T15:46:38.506Z,1.80
2018-06-18T15:49:06.838Z,2.33
2018-06-18T15:51:35.135Z,2.10
2018-06-18T15:54:03.463Z,2.05
2018-06-18T15:56:31.867Z,1.90
2018-06-18T15:59:00.120Z,1.75
2018-06-18T16:01:28.403Z,2.08
2018-06-18T16:03:57.359Z,1.77
2018-06-18T16:06:25.660Z,2.17
2018-06-18T16:08:53.991Z,1.40
2018-06-18T16:11:22.356Z,1.85
2018-06-18T16:13:50.640Z,1.72
2018-06-18T16:16:19.210Z,1.90
2018-06-18T16:18:47.538Z,1.82
2018-06-18T16:21:16.086Z,2.42
2018-06-18T16:23:44.440Z,2.10
2018-06-18T16:26:13.014Z,2.30
2018-06-18T16:28:41.300Z,2.30
2018-06-18T16:31:09.725Z,1.90
2018-06-18T16:33:38.099Z,2.20
2018-06-18T16:36:06.604Z,2.10
2018-06-18T16:38:34.938Z,2.30
2018-06-18T16:41:03.271Z,3.22
2018-06-18T16:43:31.667Z,2.90
2018-06-18T16:46:00.163Z,2.30
2018-06-18T16:48:28.485Z,2.20
2018-06-18T16:50:56.852Z,2.60
2018-06-18T16:53:25.190Z,2.50
2018-06-18T16:55:53.682Z,3.75
2018-06-18T16:58:22.116Z,2.30
2018-06-18T17:00:50.530Z,2.33
2018-06-18T17:03:18.858Z,2.52
2018-06-18T17:05:47.279Z,2.25
2018-06-18T17:08:15.602Z,2.02
2018-06-18T17:10:43.950Z,1.92
2018-06-18T17:13:12.239Z,2.33
2018-06-18T17:15:40.497Z,2.00
2018-06-18T17:18:08.779Z,1.57
2018-06-18T17:20:37.120Z,1.70
2018-06-18T17:23:05.449Z,1.85
2018-06-18T17:25:33.714Z,1.87
2018-06-18T17:28:01.991Z,1.47
2018-06-18T17:30:30.322Z,1.57
2018-06-18T17:32:58.388Z,1.40
2018-06-18T17:35:26.697Z,1.80
2018-06-18T17:37:55.546Z,1.30
2018-06-18T17:40:23.864Z,1.32
2018-06-18T17:42:52.443Z,1.52
2018-06-18T17:45:20.739Z,1.42
2018-06-18T17:47:49.135Z,1.00
2018-06-18T17:50:17.502Z,1.30
2018-06-18T17:52:45.853Z,1.00
2018-06-18T17:55:14.102Z,1.27
2018-06-18T17:57:42.483Z,1.30
2018-06-18T18:00:10.630Z,1.57
2018-06-18T18:02:39.040Z,1.37
2018-06-18T18:05:07.467Z,1.25
2018-06-18T18:07:35.955Z,1.25
2018-06-18T18:10:04.654Z,0.95
2018-06-18T18:12:33.050Z,1.00
2018-06-18T18:15:01.160Z,1.52
2018-06-18T18:17:29.542Z,1.32
2018-06-18T18:19:58.139Z,1.32
2018-06-18T18:22:26.536Z,1.50
2018-06-18T18:24:55.107Z,1.60
2018-06-18T18:27:23.620Z,2.00
2018-06-18T18:29:53.128Z,2.12
2018-06-18T18:32:21.426Z,1.70
2018-06-18T18:34:49.845Z,3.92
2018-06-18T18:37:18.349Z,3.02
2018-06-18T18:39:46.677Z,1.45
2018-06-18T18:42:14.964Z,1.50
2018-06-18T18:44:43.184Z,1.80
2018-06-18T18:47:11.543Z,1.72
2018-06-18T18:49:39.818Z,1.95
2018-06-18T18:52:08.112Z,1.77
2018-06-18T18:56:00.313Z,1.67
2018-06-18T18:58:58.616Z,1.67
2018-06-18T19:01:27.782Z,1.80
2018-06-18T19:03:59.045Z,3.45
2018-06-18T19:06:27.341Z,5.47
2018-06-18T19:08:55.656Z,3.55
2018-06-18T19:11:24.051Z,2.90
2018-06-18T19:13:52.321Z,2.60
2018-06-18T19:16:20.696Z,2.50
2018-06-18T19:18:54.750Z,2.08
2018-06-18T19:21:23.185Z,2.55
2018-06-18T19:23:51.673Z,1.90
2018-06-18T19:26:20.153Z,2.40
2018-06-18T19:28:48.478Z,5.00
2018-06-18T19:31:19.705Z,4.42
2018-06-18T19:34:04.285Z,2.25
2018-06-18T19:36:32.583Z,2.10
2018-06-18T19:39:00.952Z,2.05
2018-06-18T19:41:29.217Z,2.10
2018-06-18T19:43:57.480Z,1.90
2018-06-18T19:46:33.866Z,2.40
2018-06-18T19:49:09.185Z,3.17
2018-06-18T19:51:37.566Z,2.98
2018-06-18T19:54:09.286Z,4.03
2018-06-18T19:56:37.658Z,2.50
2018-06-18T19:59:06.298Z,2.30
2018-06-18T20:01:35.178Z,2.55
2018-06-18T20:04:03.489Z,2.45
2018-06-18T20:06:31.859Z,2.30
2018-06-18T20:09:00.109Z,1.80
2018-06-18T20:11:28.435Z,2.00
2018-06-18T20:13:56.775Z,2.47
2018-06-18T20:16:25.050Z,2.10
2018-06-18T20:18:53.309Z,1.80
2018-06-18T20:21:21.575Z,2.47
2018-06-18T20:23:49.861Z,2.20
2018-06-18T20:26:18.298Z,2.17
2018-06-18T20:28:46.602Z,2.75
2018-06-18T20:31:14.933Z,6.40
2018-06-18T20:33:47.857Z,7.33
2018-06-18T20:36:17.594Z,2.70
2018-06-18T20:38:45.934Z,2.33
2018-06-18T20:41:14.244Z,2.53
2018-06-18T20:44:17.383Z,2.20
2018-06-18T20:46:45.422Z,2.30
2018-06-18T20:49:14.615Z,2.40
2018-06-18T20:51:43.278Z,2.23
2018-06-18T20:54:12.494Z,3.97
2018-06-18T20:56:40.839Z,3.50
2018-06-18T20:59:10.723Z,3.10
2018-06-18T21:01:39.003Z,3.10
2018-06-18T21:04:07.532Z,3.20
2018-06-18T21:06:36.563Z,2.77
2018-06-18T21:09:07.789Z,2.60
2018-06-18T21:11:36.063Z,2.87
2018-06-18T21:14:04.417Z,3.10
2018-06-18T21:16:32.720Z,3.70
2018-06-18T21:19:00.952Z,3.43
2018-06-18T21:21:29.182Z,4.37
2018-06-18T21:23:57.491Z,4.00
2018-06-18T21:26:25.743Z,3.70
2018-06-18T21:28:54.014Z,4.33
2018-06-18T21:31:22.262Z,4.03
2018-06-18T21:33:50.553Z,4.00
2018-06-18T21:36:18.804Z,3.43
2018-06-18T21:38:47.144Z,3.77
2018-06-18T21:41:15.399Z,3.60
2018-06-18T21:43:43.673Z,4.17
2018-06-18T21:46:11.995Z,3.83
2018-06-18T21:48:40.333Z,3.57
2018-06-18T21:51:08.609Z,3.97
2018-06-18T21:53:36.877Z,3.90
2018-06-18T21:56:05.171Z,3.80
2018-06-18T21:58:33.451Z,3.63
2018-06-18T22:01:01.789Z,4.03
2018-06-18T22:03:30.089Z,3.80
2018-06-18T22:05:58.412Z,4.20
2018-06-18T22:08:28.126Z,3.50
2018-06-18T22:10:57.010Z,3.93
2018-06-18T22:13:25.284Z,3.90
2018-06-18T22:15:53.599Z,3.80
2018-06-18T22:18:21.876Z,3.43
2018-06-18T22:20:50.194Z,3.67
2018-06-18T22:23:18.226Z,4.20
2018-06-18T22:25:46.509Z,3.73
2018-06-18T22:28:48.079Z,3.77
2018-06-18T22:31:16.385Z,4.23
2018-06-18T22:33:44.659Z,4.30
2018-06-18T22:36:12.897Z,3.77
2018-06-18T22:38:41.224Z,3.97
2018-06-18T22:41:09.461Z,4.00
2018-06-18T22:43:37.723Z,3.83
2018-06-18T22:46:06.044Z,4.03
2018-06-18T22:48:34.335Z,4.17
2018-06-18T22:51:02.665Z,4.57
2018-06-18T22:53:30.956Z,4.10
2018-06-18T22:55:58.937Z,4.13
2018-06-18T22:58:27.259Z,4.50
2018-06-18T23:00:56.664Z,4.70
2018-06-18T23:03:24.922Z,5.50
2018-06-18T23:05:53.250Z,5.50
2018-06-18T23:08:21.584Z,5.30
2018-06-18T23:10:50.580Z,5.33
2018-06-18T23:13:22.167Z,5.27
2018-06-18T23:15:50.439Z,5.50
2018-06-18T23:18:18.743Z,4.90
2018-06-18T23:20:47.033Z,4.50
2018-06-18T23:23:15.337Z,5.33
2018-06-18T23:25:43.631Z,4.93
2018-06-18T23:28:12.164Z,4.63
2018-06-18T23:30:40.701Z,4.60
2018-06-18T23:33:08.983Z,4.80
2018-06-18T23:35:37.305Z,5.33
2018-06-18T23:38:05.652Z,4.77
2018-06-18T23:40:33.950Z,4.53
2018-06-18T23:43:02.232Z,5.40
2018-06-18T23:45:30.548Z,4.73
2018-06-18T23:47:58.842Z,5.57
2018-06-18T23:50:27.173Z,4.77
2018-06-18T23:52:55.498Z,4.83
2018-06-18T23:55:23.798Z,5.43
2018-06-18T23:57:52.062Z,4.83
